sensor_id;sensor_type;location;lat;lon;timestamp;P1;durP1;ratioP1;P2;durP2;ratioP2
78614;SDS011;67937;52.488;20.952;2023-04-25T00:01:56;12.60;;;8.70;;
78614;SDS011;67937;52.488;20.952;2023-04-25T00:04:24;12.60;;;8.70;;
78614;SDS011;67937;52.488;20.952;2023-04-25T00:06:53;10.00;;;8.20;;
78614;SDS011;67937;52.488;20.952;2023-04-25T00:09:22;12.10;;;8.90;;
78614;SDS011;67937;52.488;20.952;2023-04-25T00:11:50;12.00;;;8.90;;
78614;SDS011;67937;52.488;20.952;2023-04-25T00:14:17;11.90;;;8.10;;
78614;SDS011;67937;52.488;20.952;2023-04-25T00:16:45;10.10;;;8.20;;
78614;SDS011;67937;52.488;20.952;2023-04-25T00:19:14;11.90;;;7.40;;
78614;SDS011;67937;52.488;20.952;2023-04-25T00:21:42;13.30;;;9.70;;
78614;SDS011;67937;52.488;20.952;2023-04-25T00:24:12;14.80;;;9.70;;
78614;SDS011;67937;52.488;20.952;2023-04-25T00:26:40;16.70;;;10.30;;
78614;SDS011;67937;52.488;20.952;2023-04-25T00:29:08;12.80;;;9.60;;
78614;SDS011;67937;52.488;20.952;2023-04-25T00:31:36;13.50;;;9.20;;
78614;SDS011;67937;52.488;20.952;2023-04-25T00:34:05;14.50;;;11.40;;
78614;SDS011;67937;52.488;20.952;2023-04-25T00:36:34;15.00;;;10.20;;
78614;SDS011;67937;52.488;20.952;2023-04-25T00:39:02;11.10;;;8.30;;
78614;SDS011;67937;52.488;20.952;2023-04-25T00:41:30;13.10;;;8.50;;
78614;SDS011;67937;52.488;20.952;2023-04-25T00:43:59;13.90;;;9.90;;
78614;SDS011;67937;52.488;20.952;2023-04-25T00:46:29;13.00;;;9.40;;
78614;SDS011;67937;52.488;20.952;2023-04-25T00:48:58;13.10;;;9.80;;
78614;SDS011;67937;52.488;20.952;2023-04-25T00:51:26;11.00;;;8.10;;
78614;SDS011;67937;52.488;20.952;2023-04-25T00:53:54;13.80;;;10.50;;
78614;SDS011;67937;52.488;20.952;2023-04-25T00:56:22;11.90;;;9.70;;
78614;SDS011;67937;52.488;20.952;2023-04-25T00:58:52;15.00;;;10.60;;
78614;SDS011;67937;52.488;20.952;2023-04-25T01:01:22;14.60;;;10.70;;
78614;SDS011;67937;52.488;20.952;2023-04-25T01:03:50;16.80;;;11.10;;
78614;SDS011;67937;52.488;20.952;2023-04-25T01:06:20;15.10;;;10.20;;
78614;SDS011;67937;52.488;20.952;2023-04-25T01:08:48;12.10;;;10.30;;
78614;SDS011;67937;52.488;20.952;2023-04-25T01:11:16;13.80;;;9.80;;
78614;SDS011;67937;52.488;20.952;2023-04-25T01:13:45;15.00;;;9.10;;
78614;SDS011;67937;52.488;20.952;2023-04-25T01:16:13;14.70;;;10.90;;
78614;SDS011;67937;52.488;20.952;2023-04-25T01:18:41;15.30;;;9.60;;
78614;SDS011;67937;52.488;20.952;2023-04-25T01:21:11;15.00;;;10.70;;
78614;SDS011;67937;52.488;20.952;2023-04-25T01:23:41;14.20;;;10.70;;
78614;SDS011;67937;52.488;20.952;2023-04-25T01:26:10;12.10;;;9.10;;
78614;SDS011;67937;52.488;20.952;2023-04-25T01:28:39;14.10;;;9.80;;
78614;SDS011;67937;52.488;20.952;2023-04-25T01:31:08;12.60;;;10.30;;
78614;SDS011;67937;52.488;20.952;2023-04-25T01:33:36;14.80;;;10.90;;
78614;SDS011;67937;52.488;20.952;2023-04-25T01:36:05;14.40;;;9.60;;
78614;SDS011;67937;52.488;20.952;2023-04-25T01:38:33;15.00;;;11.20;;
78614;SDS011;67937;52.488;20.952;2023-04-25T01:41:01;15.00;;;10.60;;
78614;SDS011;67937;52.488;20.952;2023-04-25T01:43:29;16.20;;;11.90;;
78614;SDS011;67937;52.488;20.952;2023-04-25T01:45:57;14.60;;;10.80;;
78614;SDS011;67937;52.488;20.952;2023-04-25T01:48:26;15.30;;;10.40;;
78614;SDS011;67937;52.488;20.952;2023-04-25T01:50:54;15.80;;;11.40;;
78614;SDS011;67937;52.488;20.952;2023-04-25T01:53:22;14.60;;;9.50;;
78614;SDS011;67937;52.488;20.952;2023-04-25T01:55:50;14.00;;;10.80;;
78614;SDS011;67937;52.488;20.952;2023-04-25T01:58:18;14.20;;;11.30;;
78614;SDS011;67937;52.488;20.952;2023-04-25T02:00:46;13.30;;;11.10;;
78614;SDS011;67937;52.488;20.952;2023-04-25T02:03:14;16.90;;;11.60;;
78614;SDS011;67937;52.488;20.952;2023-04-25T02:05:42;14.90;;;10.90;;
78614;SDS011;67937;52.488;20.952;2023-04-25T02:08:10;16.30;;;11.50;;
78614;SDS011;67937;52.488;20.952;2023-04-25T02:10:38;15.80;;;10.10;;
78614;SDS011;67937;52.488;20.952;2023-04-25T02:13:06;19.30;;;12.70;;
78614;SDS011;67937;52.488;20.952;2023-04-25T02:15:34;14.40;;;11.00;;
78614;SDS011;67937;52.488;20.952;2023-04-25T02:18:02;13.60;;;9.80;;
78614;SDS011;67937;52.488;20.952;2023-04-25T02:20:30;17.10;;;11.10;;
78614;SDS011;67937;52.488;20.952;2023-04-25T02:22:58;14.10;;;11.80;;
78614;SDS011;67937;52.488;20.952;2023-04-25T02:25:26;20.30;;;11.50;;
78614;SDS011;67937;52.488;20.952;2023-04-25T02:27:54;15.30;;;10.80;;
78614;SDS011;67937;52.488;20.952;2023-04-25T02:30:22;16.00;;;11.40;;
78614;SDS011;67937;52.488;20.952;2023-04-25T02:32:50;15.90;;;10.60;;
78614;SDS011;67937;52.488;20.952;2023-04-25T02:35:18;16.60;;;12.00;;
78614;SDS011;67937;52.488;20.952;2023-04-25T02:37:46;15.00;;;10.70;;
78614;SDS011;67937;52.488;20.952;2023-04-25T02:40:14;17.70;;;12.10;;
78614;SDS011;67937;52.488;20.952;2023-04-25T02:42:42;14.90;;;10.90;;
78614;SDS011;67937;52.488;20.952;2023-04-25T02:45:11;19.00;;;10.40;;
78614;SDS011;67937;52.488;20.952;2023-04-25T02:47:39;15.10;;;9.80;;
78614;SDS011;67937;52.488;20.952;2023-04-25T02:50:07;15.10;;;10.50;;
78614;SDS011;67937;52.488;20.952;2023-04-25T02:52:35;13.70;;;10.40;;
78614;SDS011;67937;52.488;20.952;2023-04-25T02:55:03;14.90;;;10.40;;
78614;SDS011;67937;52.488;20.952;2023-04-25T02:57:32;15.30;;;10.90;;
78614;SDS011;67937;52.488;20.952;2023-04-25T03:00:00;16.70;;;11.60;;
78614;SDS011;67937;52.488;20.952;2023-04-25T03:02:27;12.90;;;9.70;;
78614;SDS011;67937;52.488;20.952;2023-04-25T03:04:55;12.30;;;9.30;;
78614;SDS011;67937;52.488;20.952;2023-04-25T03:07:24;17.60;;;10.50;;
78614;SDS011;67937;52.488;20.952;2023-04-25T03:09:52;12.20;;;9.30;;
78614;SDS011;67937;52.488;20.952;2023-04-25T03:12:21;14.30;;;10.00;;
78614;SDS011;67937;52.488;20.952;2023-04-25T03:14:50;11.30;;;8.80;;
78614;SDS011;67937;52.488;20.952;2023-04-25T03:17:18;11.40;;;9.30;;
78614;SDS011;67937;52.488;20.952;2023-04-25T03:19:46;10.90;;;8.50;;
78614;SDS011;67937;52.488;20.952;2023-04-25T03:22:14;16.00;;;11.10;;
78614;SDS011;67937;52.488;20.952;2023-04-25T03:24:42;9.80;;;7.70;;
78614;SDS011;67937;52.488;20.952;2023-04-25T03:27:09;15.20;;;9.80;;
78614;SDS011;67937;52.488;20.952;2023-04-25T03:29:37;13.90;;;9.90;;
78614;SDS011;67937;52.488;20.952;2023-04-25T03:32:06;11.70;;;9.30;;
78614;SDS011;67937;52.488;20.952;2023-04-25T03:34:34;12.50;;;8.60;;
78614;SDS011;67937;52.488;20.952;2023-04-25T03:37:02;12.90;;;8.70;;
78614;SDS011;67937;52.488;20.952;2023-04-25T03:39:30;9.60;;;7.90;;
78614;SDS011;67937;52.488;20.952;2023-04-25T03:41:58;16.30;;;10.10;;
78614;SDS011;67937;52.488;20.952;2023-04-25T03:44:26;10.10;;;8.40;;
78614;SDS011;67937;52.488;20.952;2023-04-25T03:46:54;10.80;;;8.20;;
78614;SDS011;67937;52.488;20.952;2023-04-25T03:49:22;12.60;;;8.70;;
78614;SDS011;67937;52.488;20.952;2023-04-25T03:51:50;11.50;;;7.70;;
78614;SDS011;67937;52.488;20.952;2023-04-25T03:54:18;12.30;;;9.10;;
78614;SDS011;67937;52.488;20.952;2023-04-25T03:56:46;14.00;;;9.30;;
78614;SDS011;67937;52.488;20.952;2023-04-25T03:59:14;11.70;;;8.20;;
78614;SDS011;67937;52.488;20.952;2023-04-25T04:01:42;11.70;;;8.80;;
78614;SDS011;67937;52.488;20.952;2023-04-25T04:04:10;7.00;;;5.90;;
78614;SDS011;67937;52.488;20.952;2023-04-25T04:06:38;11.30;;;7.80;;
78614;SDS011;67937;52.488;20.952;2023-04-25T04:09:06;12.70;;;6.50;;
78614;SDS011;67937;52.488;20.952;2023-04-25T04:11:37;11.90;;;8.50;;
78614;SDS011;67937;52.488;20.952;2023-04-25T04:14:06;10.40;;;7.60;;
78614;SDS011;67937;52.488;20.952;2023-04-25T04:16:34;9.00;;;7.60;;
78614;SDS011;67937;52.488;20.952;2023-04-25T04:19:02;8.90;;;5.80;;
78614;SDS011;67937;52.488;20.952;2023-04-25T04:21:30;10.50;;;7.80;;
78614;SDS011;67937;52.488;20.952;2023-04-25T04:23:59;9.70;;;6.20;;
78614;SDS011;67937;52.488;20.952;2023-04-25T04:26:28;7.80;;;6.10;;
78614;SDS011;67937;52.488;20.952;2023-04-25T04:28:58;10.80;;;7.30;;
78614;SDS011;67937;52.488;20.952;2023-04-25T04:31:26;12.80;;;7.50;;
78614;SDS011;67937;52.488;20.952;2023-04-25T04:33:54;9.70;;;5.80;;
78614;SDS011;67937;52.488;20.952;2023-04-25T04:36:22;7.60;;;5.90;;
78614;SDS011;67937;52.488;20.952;2023-04-25T04:38:52;9.20;;;7.40;;
78614;SDS011;67937;52.488;20.952;2023-04-25T04:41:20;8.20;;;5.50;;
78614;SDS011;67937;52.488;20.952;2023-04-25T04:43:48;7.80;;;6.60;;
78614;SDS011;67937;52.488;20.952;2023-04-25T04:46:16;8.70;;;6.70;;
78614;SDS011;67937;52.488;20.952;2023-04-25T04:48:44;8.50;;;6.60;;
78614;SDS011;67937;52.488;20.952;2023-04-25T04:51:12;9.90;;;7.60;;
78614;SDS011;67937;52.488;20.952;2023-04-25T04:53:40;7.70;;;6.10;;
78614;SDS011;67937;52.488;20.952;2023-04-25T04:56:08;7.00;;;5.90;;
78614;SDS011;67937;52.488;20.952;2023-04-25T04:58:36;8.00;;;6.40;;
78614;SDS011;67937;52.488;20.952;2023-04-25T05:01:04;8.50;;;7.60;;
78614;SDS011;67937;52.488;20.952;2023-04-25T05:03:32;6.90;;;5.70;;
78614;SDS011;67937;52.488;20.952;2023-04-25T05:06:00;9.60;;;6.80;;
78614;SDS011;67937;52.488;20.952;2023-04-25T05:08:28;9.80;;;7.40;;
78614;SDS011;67937;52.488;20.952;2023-04-25T05:10:56;12.20;;;7.00;;
78614;SDS011;67937;52.488;20.952;2023-04-25T05:13:24;10.30;;;7.60;;
78614;SDS011;67937;52.488;20.952;2023-04-25T05:15:52;7.30;;;6.60;;
78614;SDS011;67937;52.488;20.952;2023-04-25T05:18:20;7.40;;;5.90;;
78614;SDS011;67937;52.488;20.952;2023-04-25T05:20:48;9.20;;;8.00;;
78614;SDS011;67937;52.488;20.952;2023-04-25T05:23:16;7.80;;;7.10;;
78614;SDS011;67937;52.488;20.952;2023-04-25T05:25:44;6.40;;;5.30;;
78614;SDS011;67937;52.488;20.952;2023-04-25T05:28:12;11.20;;;6.90;;
78614;SDS011;67937;52.488;20.952;2023-04-25T05:30:41;6.60;;;5.70;;
78614;SDS011;67937;52.488;20.952;2023-04-25T05:33:09;6.40;;;5.80;;
78614;SDS011;67937;52.488;20.952;2023-04-25T05:35:37;6.20;;;4.70;;
78614;SDS011;67937;52.488;20.952;2023-04-25T05:38:05;7.40;;;6.10;;
78614;SDS011;67937;52.488;20.952;2023-04-25T05:40:32;7.60;;;6.10;;
78614;SDS011;67937;52.488;20.952;2023-04-25T05:43:00;6.80;;;6.00;;
78614;SDS011;67937;52.488;20.952;2023-04-25T05:45:28;6.60;;;6.00;;
78614;SDS011;67937;52.488;20.952;2023-04-25T05:47:57;5.80;;;5.20;;
78614;SDS011;67937;52.488;20.952;2023-04-25T05:50:24;5.70;;;5.10;;
78614;SDS011;67937;52.488;20.952;2023-04-25T05:52:52;5.30;;;4.80;;
78614;SDS011;67937;52.488;20.952;2023-04-25T05:55:20;5.80;;;4.70;;
78614;SDS011;67937;52.488;20.952;2023-04-25T05:57:48;7.20;;;6.30;;
78614;SDS011;67937;52.488;20.952;2023-04-25T06:00:16;6.70;;;5.40;;
78614;SDS011;67937;52.488;20.952;2023-04-25T06:02:45;6.60;;;6.00;;
78614;SDS011;67937;52.488;20.952;2023-04-25T06:05:13;6.60;;;5.50;;
78614;SDS011;67937;52.488;20.952;2023-04-25T06:07:41;7.40;;;6.00;;
78614;SDS011;67937;52.488;20.952;2023-04-25T06:10:10;8.30;;;6.10;;
78614;SDS011;67937;52.488;20.952;2023-04-25T06:12:38;6.00;;;5.50;;
78614;SDS011;67937;52.488;20.952;2023-04-25T06:15:06;5.90;;;5.30;;
78614;SDS011;67937;52.488;20.952;2023-04-25T06:17:34;6.50;;;5.70;;
78614;SDS011;67937;52.488;20.952;2023-04-25T06:20:02;4.90;;;4.40;;
78614;SDS011;67937;52.488;20.952;2023-04-25T06:22:32;6.90;;;4.90;;
78614;SDS011;67937;52.488;20.952;2023-04-25T06:25:00;4.50;;;3.70;;
78614;SDS011;67937;52.488;20.952;2023-04-25T06:27:30;5.70;;;5.20;;
78614;SDS011;67937;52.488;20.952;2023-04-25T06:29:58;9.60;;;4.40;;
78614;SDS011;67937;52.488;20.952;2023-04-25T06:32:26;4.70;;;4.30;;
78614;SDS011;67937;52.488;20.952;2023-04-25T06:34:56;5.20;;;4.40;;
78614;SDS011;67937;52.488;20.952;2023-04-25T06:37:24;5.70;;;3.90;;
78614;SDS011;67937;52.488;20.952;2023-04-25T06:39:52;5.00;;;3.70;;
78614;SDS011;67937;52.488;20.952;2023-04-25T06:42:20;3.70;;;3.40;;
78614;SDS011;67937;52.488;20.952;2023-04-25T06:44:48;4.40;;;4.00;;
78614;SDS011;67937;52.488;20.952;2023-04-25T06:47:16;6.30;;;3.70;;
78614;SDS011;67937;52.488;20.952;2023-04-25T06:49:44;6.80;;;3.40;;
78614;SDS011;67937;52.488;20.952;2023-04-25T06:52:12;4.30;;;3.90;;
78614;SDS011;67937;52.488;20.952;2023-04-25T06:54:40;4.10;;;3.70;;
78614;SDS011;67937;52.488;20.952;2023-04-25T06:57:08;4.50;;;3.90;;
78614;SDS011;67937;52.488;20.952;2023-04-25T06:59:36;4.40;;;4.00;;
78614;SDS011;67937;52.488;20.952;2023-04-25T07:02:04;4.50;;;4.10;;
78614;SDS011;67937;52.488;20.952;2023-04-25T07:04:32;4.10;;;3.80;;
78614;SDS011;67937;52.488;20.952;2023-04-25T07:07:00;3.50;;;3.20;;
78614;SDS011;67937;52.488;20.952;2023-04-25T07:09:29;4.00;;;3.30;;
78614;SDS011;67937;52.488;20.952;2023-04-25T07:12:00;4.60;;;4.00;;
78614;SDS011;67937;52.488;20.952;2023-04-25T07:14:28;3.50;;;3.20;;
78614;SDS011;67937;52.488;20.952;2023-04-25T07:16:56;5.60;;;3.90;;
78614;SDS011;67937;52.488;20.952;2023-04-25T07:19:24;4.80;;;4.00;;
78614;SDS011;67937;52.488;20.952;2023-04-25T07:21:53;5.10;;;4.60;;
78614;SDS011;67937;52.488;20.952;2023-04-25T07:24:21;5.80;;;4.20;;
78614;SDS011;67937;52.488;20.952;2023-04-25T07:26:49;5.40;;;4.40;;
78614;SDS011;67937;52.488;20.952;2023-04-25T07:29:16;5.60;;;5.10;;
78614;SDS011;67937;52.488;20.952;2023-04-25T07:31:44;6.30;;;5.30;;
78614;SDS011;67937;52.488;20.952;2023-04-25T07:34:12;4.60;;;4.00;;
78614;SDS011;67937;52.488;20.952;2023-04-25T07:36:40;4.70;;;4.20;;
78614;SDS011;67937;52.488;20.952;2023-04-25T07:39:09;5.10;;;4.60;;
78614;SDS011;67937;52.488;20.952;2023-04-25T07:41:37;5.40;;;4.90;;
78614;SDS011;67937;52.488;20.952;2023-04-25T07:44:05;4.80;;;4.40;;
78614;SDS011;67937;52.488;20.952;2023-04-25T07:46:33;4.70;;;4.30;;
78614;SDS011;67937;52.488;20.952;2023-04-25T07:49:01;7.40;;;4.70;;
78614;SDS011;67937;52.488;20.952;2023-04-25T07:51:29;4.90;;;4.30;;
78614;SDS011;67937;52.488;20.952;2023-04-25T07:53:57;4.60;;;4.20;;
78614;SDS011;67937;52.488;20.952;2023-04-25T07:56:26;4.20;;;3.80;;
78614;SDS011;67937;52.488;20.952;2023-04-25T07:58:54;4.30;;;3.90;;
78614;SDS011;67937;52.488;20.952;2023-04-25T08:01:21;5.10;;;4.60;;
78614;SDS011;67937;52.488;20.952;2023-04-25T08:03:49;4.50;;;4.10;;
78614;SDS011;67937;52.488;20.952;2023-04-25T08:06:17;6.30;;;5.50;;
78614;SDS011;67937;52.488;20.952;2023-04-25T08:08:45;5.50;;;5.00;;
78614;SDS011;67937;52.488;20.952;2023-04-25T08:11:13;4.10;;;3.70;;
78614;SDS011;67937;52.488;20.952;2023-04-25T08:13:42;6.80;;;4.80;;
78614;SDS011;67937;52.488;20.952;2023-04-25T08:16:10;5.30;;;4.90;;
78614;SDS011;67937;52.488;20.952;2023-04-25T08:18:38;7.30;;;5.10;;
78614;SDS011;67937;52.488;20.952;2023-04-25T08:21:06;4.00;;;3.70;;
78614;SDS011;67937;52.488;20.952;2023-04-25T08:23:35;4.10;;;3.60;;
78614;SDS011;67937;52.488;20.952;2023-04-25T08:26:03;4.70;;;4.20;;
78614;SDS011;67937;52.488;20.952;2023-04-25T08:28:31;4.20;;;3.80;;
78614;SDS011;67937;52.488;20.952;2023-04-25T08:30:59;4.10;;;3.60;;
78614;SDS011;67937;52.488;20.952;2023-04-25T08:33:27;3.90;;;3.50;;
78614;SDS011;67937;52.488;20.952;2023-04-25T08:35:57;4.70;;;4.30;;
78614;SDS011;67937;52.488;20.952;2023-04-25T08:38:25;4.40;;;3.00;;
78614;SDS011;67937;52.488;20.952;2023-04-25T08:40:53;4.40;;;4.00;;
78614;SDS011;67937;52.488;20.952;2023-04-25T08:43:21;5.10;;;4.60;;
78614;SDS011;67937;52.488;20.952;2023-04-25T08:45:51;3.50;;;3.00;;
78614;SDS011;67937;52.488;20.952;2023-04-25T08:48:21;4.20;;;3.50;;
78614;SDS011;67937;52.488;20.952;2023-04-25T08:50:53;4.60;;;4.20;;
78614;SDS011;67937;52.488;20.952;2023-04-25T08:53:28;4.30;;;3.50;;
78614;SDS011;67937;52.488;20.952;2023-04-25T08:55:58;4.00;;;3.20;;
78614;SDS011;67937;52.488;20.952;2023-04-25T08:58:28;3.90;;;3.50;;
78614;SDS011;67937;52.488;20.952;2023-04-25T09:00:56;4.10;;;3.70;;
78614;SDS011;67937;52.488;20.952;2023-04-25T09:03:24;3.60;;;3.20;;
78614;SDS011;67937;52.488;20.952;2023-04-25T09:05:52;5.80;;;3.10;;
78614;SDS011;67937;52.488;20.952;2023-04-25T09:08:22;4.30;;;3.90;;
78614;SDS011;67937;52.488;20.952;2023-04-25T09:10:50;6.30;;;3.30;;
78614;SDS011;67937;52.488;20.952;2023-04-25T09:13:24;4.30;;;3.90;;
78614;SDS011;67937;52.488;20.952;2023-04-25T09:15:54;5.40;;;4.50;;
78614;SDS011;67937;52.488;20.952;2023-04-25T09:18:24;4.10;;;3.30;;
78614;SDS011;67937;52.488;20.952;2023-04-25T09:20:56;3.90;;;3.60;;
78614;SDS011;67937;52.488;20.952;2023-04-25T09:23:38;4.20;;;3.90;;
78614;SDS011;67937;52.488;20.952;2023-04-25T09:26:18;4.30;;;3.90;;
78614;SDS011;67937;52.488;20.952;2023-04-25T09:28:48;4.30;;;4.00;;
78614;SDS011;67937;52.488;20.952;2023-04-25T09:31:22;3.30;;;3.00;;
78614;SDS011;67937;52.488;20.952;2023-04-25T09:33:58;3.80;;;3.50;;
78614;SDS011;67937;52.488;20.952;2023-04-25T09:36:29;3.30;;;3.00;;
78614;SDS011;67937;52.488;20.952;2023-04-25T09:38:58;3.30;;;3.00;;
78614;SDS011;67937;52.488;20.952;2023-04-25T09:41:27;4.00;;;3.70;;
78614;SDS011;67937;52.488;20.952;2023-04-25T09:43:58;3.50;;;3.20;;
78614;SDS011;67937;52.488;20.952;2023-04-25T09:46:32;3.90;;;3.60;;
78614;SDS011;67937;52.488;20.952;2023-04-25T09:49:05;3.60;;;3.10;;
78614;SDS011;67937;52.488;20.952;2023-04-25T09:51:34;4.70;;;2.90;;
78614;SDS011;67937;52.488;20.952;2023-04-25T09:54:02;3.20;;;2.90;;
78614;SDS011;67937;52.488;20.952;2023-04-25T09:56:31;2.70;;;2.50;;
78614;SDS011;67937;52.488;20.952;2023-04-25T09:59:03;3.50;;;3.20;;
78614;SDS011;67937;52.488;20.952;2023-04-25T10:01:33;4.20;;;3.70;;
78614;SDS011;67937;52.488;20.952;2023-04-25T10:04:03;3.30;;;3.10;;
78614;SDS011;67937;52.488;20.952;2023-04-25T10:06:34;3.60;;;3.30;;
78614;SDS011;67937;52.488;20.952;2023-04-25T10:09:05;3.50;;;3.10;;
78614;SDS011;67937;52.488;20.952;2023-04-25T10:11:34;3.60;;;3.20;;
78614;SDS011;67937;52.488;20.952;2023-04-25T10:14:04;2.80;;;2.60;;
78614;SDS011;67937;52.488;20.952;2023-04-25T10:16:32;3.80;;;2.70;;
78614;SDS011;67937;52.488;20.952;2023-04-25T10:19:01;3.00;;;2.80;;
78614;SDS011;67937;52.488;20.952;2023-04-25T10:21:30;3.70;;;3.00;;
78614;SDS011;67937;52.488;20.952;2023-04-25T10:24:00;3.10;;;2.90;;
78614;SDS011;67937;52.488;20.952;2023-04-25T10:26:28;3.80;;;3.40;;
78614;SDS011;67937;52.488;20.952;2023-04-25T10:28:57;2.90;;;2.60;;
78614;SDS011;67937;52.488;20.952;2023-04-25T10:31:27;3.30;;;3.10;;
78614;SDS011;67937;52.488;20.952;2023-04-25T10:33:57;3.20;;;2.90;;
78614;SDS011;67937;52.488;20.952;2023-04-25T10:36:27;4.60;;;3.50;;
78614;SDS011;67937;52.488;20.952;2023-04-25T10:39:02;5.60;;;4.10;;
78614;SDS011;67937;52.488;20.952;2023-04-25T10:41:47;5.60;;;4.00;;
78614;SDS011;67937;52.488;20.952;2023-04-25T10:44:21;4.10;;;3.60;;
78614;SDS011;67937;52.488;20.952;2023-04-25T10:46:49;4.00;;;3.20;;
78614;SDS011;67937;52.488;20.952;2023-04-25T10:49:30;3.60;;;3.30;;
78614;SDS011;67937;52.488;20.952;2023-04-25T10:54:47;4.00;;;3.70;;
78614;SDS011;67937;52.488;20.952;2023-04-25T11:02:49;3.90;;;3.50;;
78614;SDS011;67937;52.488;20.952;2023-04-25T11:05:24;3.20;;;2.90;;
78614;SDS011;67937;52.488;20.952;2023-04-25T11:07:56;3.90;;;3.30;;
78614;SDS011;67937;52.488;20.952;2023-04-25T11:10:26;4.40;;;3.50;;
78614;SDS011;67937;52.488;20.952;2023-04-25T11:12:55;3.50;;;3.20;;
78614;SDS011;67937;52.488;20.952;2023-04-25T11:15:23;3.10;;;2.80;;
78614;SDS011;67937;52.488;20.952;2023-04-25T11:17:52;3.50;;;3.20;;
78614;SDS011;67937;52.488;20.952;2023-04-25T11:20:21;3.50;;;3.20;;
78614;SDS011;67937;52.488;20.952;2023-04-25T11:22:52;3.80;;;3.50;;
78614;SDS011;67937;52.488;20.952;2023-04-25T11:25:20;3.70;;;3.40;;
78614;SDS011;67937;52.488;20.952;2023-04-25T11:27:53;3.70;;;3.40;;
78614;SDS011;67937;52.488;20.952;2023-04-25T11:30:27;3.00;;;2.70;;
78614;SDS011;67937;52.488;20.952;2023-04-25T11:32:56;4.00;;;3.20;;
78614;SDS011;67937;52.488;20.952;2023-04-25T11:35:25;3.50;;;2.80;;
78614;SDS011;67937;52.488;20.952;2023-04-25T11:37:53;3.30;;;3.10;;
78614;SDS011;67937;52.488;20.952;2023-04-25T11:40:21;3.10;;;2.80;;
78614;SDS011;67937;52.488;20.952;2023-04-25T11:42:49;3.10;;;2.90;;
78614;SDS011;67937;52.488;20.952;2023-04-25T11:45:16;2.70;;;2.50;;
78614;SDS011;67937;52.488;20.952;2023-04-25T11:47:46;2.90;;;2.70;;
78614;SDS011;67937;52.488;20.952;2023-04-25T11:50:14;3.40;;;3.10;;
78614;SDS011;67937;52.488;20.952;2023-04-25T11:52:42;2.90;;;2.70;;
78614;SDS011;67937;52.488;20.952;2023-04-25T11:55:16;3.20;;;3.00;;
78614;SDS011;67937;52.488;20.952;2023-04-25T11:57:49;3.50;;;3.20;;
78614;SDS011;67937;52.488;20.952;2023-04-25T12:00:19;3.30;;;3.00;;
78614;SDS011;67937;52.488;20.952;2023-04-25T12:02:52;2.90;;;2.60;;
78614;SDS011;67937;52.488;20.952;2023-04-25T12:05:25;3.30;;;2.40;;
78614;SDS011;67937;52.488;20.952;2023-04-25T12:07:54;2.10;;;2.00;;
78614;SDS011;67937;52.488;20.952;2023-04-25T12:10:23;3.00;;;2.80;;
78614;SDS011;67937;52.488;20.952;2023-04-25T12:12:52;3.00;;;2.80;;
78614;SDS011;67937;52.488;20.952;2023-04-25T12:15:24;3.20;;;2.90;;
78614;SDS011;67937;52.488;20.952;2023-04-25T12:17:53;3.80;;;3.50;;
78614;SDS011;67937;52.488;20.952;2023-04-25T12:20:24;2.50;;;2.40;;
78614;SDS011;67937;52.488;20.952;2023-04-25T12:22:52;3.20;;;2.90;;
78614;SDS011;67937;52.488;20.952;2023-04-25T12:25:41;2.40;;;2.30;;
78614;SDS011;67937;52.488;20.952;2023-04-25T12:33:30;3.20;;;2.80;;
78614;SDS011;67937;52.488;20.952;2023-04-25T12:35:59;2.70;;;2.40;;
78614;SDS011;67937;52.488;20.952;2023-04-25T12:38:30;3.20;;;3.00;;
78614;SDS011;67937;52.488;20.952;2023-04-25T12:41:00;2.50;;;2.20;;
78614;SDS011;67937;52.488;20.952;2023-04-25T12:43:28;2.80;;;2.60;;
78614;SDS011;67937;52.488;20.952;2023-04-25T12:45:56;3.00;;;2.70;;
78614;SDS011;67937;52.488;20.952;2023-04-25T12:48:24;2.30;;;2.10;;
78614;SDS011;67937;52.488;20.952;2023-04-25T12:50:52;3.90;;;2.10;;
78614;SDS011;67937;52.488;20.952;2023-04-25T12:53:21;3.20;;;2.70;;
78614;SDS011;67937;52.488;20.952;2023-04-25T12:55:50;2.90;;;1.80;;
78614;SDS011;67937;52.488;20.952;2023-04-25T12:58:19;1.70;;;1.60;;
78614;SDS011;67937;52.488;20.952;2023-04-25T13:00:47;3.10;;;2.40;;
78614;SDS011;67937;52.488;20.952;2023-04-25T13:03:15;3.40;;;2.30;;
78614;SDS011;67937;52.488;20.952;2023-04-25T13:05:44;2.10;;;2.00;;
78614;SDS011;67937;52.488;20.952;2023-04-25T13:08:12;2.10;;;1.90;;
78614;SDS011;67937;52.488;20.952;2023-04-25T13:10:40;2.30;;;2.10;;
78614;SDS011;67937;52.488;20.952;2023-04-25T13:13:08;2.40;;;2.20;;
78614;SDS011;67937;52.488;20.952;2023-04-25T13:15:36;2.40;;;2.30;;
78614;SDS011;67937;52.488;20.952;2023-04-25T13:18:04;1.60;;;1.50;;
78614;SDS011;67937;52.488;20.952;2023-04-25T13:20:33;3.10;;;2.00;;
78614;SDS011;67937;52.488;20.952;2023-04-25T13:23:01;2.10;;;2.00;;
78614;SDS011;67937;52.488;20.952;2023-04-25T13:25:29;2.10;;;1.90;;
78614;SDS011;67937;52.488;20.952;2023-04-25T13:27:57;2.60;;;2.40;;
78614;SDS011;67937;52.488;20.952;2023-04-25T13:30:25;2.30;;;2.10;;
78614;SDS011;67937;52.488;20.952;2023-04-25T13:32:53;2.60;;;2.40;;
78614;SDS011;67937;52.488;20.952;2023-04-25T13:35:22;2.20;;;2.00;;
78614;SDS011;67937;52.488;20.952;2023-04-25T13:37:50;2.40;;;2.20;;
78614;SDS011;67937;52.488;20.952;2023-04-25T13:40:18;2.50;;;2.30;;
78614;SDS011;67937;52.488;20.952;2023-04-25T13:42:46;3.10;;;2.90;;
78614;SDS011;67937;52.488;20.952;2023-04-25T13:45:14;2.70;;;2.60;;
78614;SDS011;67937;52.488;20.952;2023-04-25T13:47:42;2.90;;;2.50;;
78614;SDS011;67937;52.488;20.952;2023-04-25T13:50:10;3.00;;;2.80;;
78614;SDS011;67937;52.488;20.952;2023-04-25T13:52:38;3.10;;;2.80;;
78614;SDS011;67937;52.488;20.952;2023-04-25T13:55:06;3.10;;;2.70;;
78614;SDS011;67937;52.488;20.952;2023-04-25T14:00:05;3.20;;;2.50;;
78614;SDS011;67937;52.488;20.952;2023-04-25T14:02:35;3.00;;;2.80;;
78614;SDS011;67937;52.488;20.952;2023-04-25T14:05:04;3.00;;;2.60;;
78614;SDS011;67937;52.488;20.952;2023-04-25T14:07:36;3.10;;;2.80;;
78614;SDS011;67937;52.488;20.952;2023-04-25T14:10:04;2.50;;;2.20;;
78614;SDS011;67937;52.488;20.952;2023-04-25T14:12:33;2.70;;;2.50;;
78614;SDS011;67937;52.488;20.952;2023-04-25T14:15:01;2.40;;;2.20;;
78614;SDS011;67937;52.488;20.952;2023-04-25T14:17:29;2.50;;;2.30;;
78614;SDS011;67937;52.488;20.952;2023-04-25T14:19:57;3.20;;;2.90;;
78614;SDS011;67937;52.488;20.952;2023-04-25T14:22:25;2.70;;;2.40;;
78614;SDS011;67937;52.488;20.952;2023-04-25T14:24:53;5.60;;;3.60;;
78614;SDS011;67937;52.488;20.952;2023-04-25T14:27:21;4.20;;;3.70;;
78614;SDS011;67937;52.488;20.952;2023-04-25T14:29:49;5.20;;;3.70;;
78614;SDS011;67937;52.488;20.952;2023-04-25T14:32:17;5.70;;;3.70;;
78614;SDS011;67937;52.488;20.952;2023-04-25T14:34:46;4.60;;;3.50;;
78614;SDS011;67937;52.488;20.952;2023-04-25T14:37:14;4.10;;;3.70;;
78614;SDS011;67937;52.488;20.952;2023-04-25T14:39:42;3.50;;;3.20;;
78614;SDS011;67937;52.488;20.952;2023-04-25T14:42:10;3.90;;;3.00;;
78614;SDS011;67937;52.488;20.952;2023-04-25T14:44:38;3.50;;;2.00;;
78614;SDS011;67937;52.488;20.952;2023-04-25T14:47:06;2.80;;;2.20;;
78614;SDS011;67937;52.488;20.952;2023-04-25T14:49:34;3.80;;;3.40;;
78614;SDS011;67937;52.488;20.952;2023-04-25T14:52:02;4.30;;;3.30;;
78614;SDS011;67937;52.488;20.952;2023-04-25T14:54:30;3.80;;;3.20;;